createdAt,value
2023-03-13T00:01:47.391Z,4.13
2023-03-13T00:04:32.559Z,4.87
2023-03-13T00:06:59.277Z,4.83
2023-03-13T00:09:27.337Z,4.20
2023-03-13T00:11:54.058Z,4.57
2023-03-13T00:14:20.624Z,4.07
2023-03-13T00:16:47.621Z,4.83
2023-03-13T00:19:15.610Z,4.10
2023-03-13T00:21:42.319Z,4.80
2023-03-13T00:24:11.371Z,4.47
2023-03-13T00:26:38.000Z,4.10
2023-03-13T00:29:04.697Z,4.13
2023-03-13T00:31:32.301Z,3.50
2023-03-13T00:34:03.661Z,3.50
2023-03-13T00:36:35.836Z,3.40
2023-03-13T00:39:04.404Z,4.03
2023-03-13T00:41:32.998Z,3.63
2023-03-13T00:44:00.326Z,3.40
2023-03-13T00:46:29.653Z,3.20
2023-03-13T00:48:57.486Z,3.33
2023-03-13T00:51:27.462Z,3.20
2023-03-13T00:53:56.729Z,3.10
2023-03-13T00:56:23.524Z,3.33
2023-03-13T00:58:50.781Z,3.07
2023-03-13T01:01:23.672Z,2.80
2023-03-13T01:03:54.431Z,2.67
2023-03-13T01:06:24.211Z,2.90
2023-03-13T01:08:51.025Z,2.95
2023-03-13T01:11:23.630Z,3.00
2023-03-13T01:13:53.323Z,3.00
2023-03-13T01:16:21.323Z,2.90
2023-03-13T01:18:53.309Z,2.83
2023-03-13T01:21:21.583Z,2.93
2023-03-13T01:23:50.760Z,3.13
2023-03-13T01:26:17.594Z,2.90
2023-03-13T01:28:44.766Z,2.97
2023-03-13T01:31:21.239Z,3.13
2023-03-13T01:33:50.244Z,2.67
2023-03-13T01:36:18.040Z,3.00
2023-03-13T01:38:47.730Z,3.50
2023-03-13T01:41:14.354Z,2.90
2023-03-13T01:43:41.107Z,3.00
2023-03-13T01:46:07.707Z,3.13
2023-03-13T01:48:41.365Z,3.20
2023-03-13T01:51:22.981Z,3.00
2023-03-13T01:54:10.044Z,2.90
2023-03-13T01:56:39.126Z,3.10
2023-03-13T01:59:09.763Z,2.80
2023-03-13T02:01:36.866Z,2.90
2023-03-13T02:04:06.057Z,3.07
2023-03-13T02:06:37.605Z,2.90
2023-03-13T02:09:10.632Z,2.90
2023-03-13T02:11:49.788Z,2.70
2023-03-13T02:14:39.534Z,2.80
2023-03-13T02:17:07.719Z,3.03
2023-03-13T02:19:44.350Z,3.20
2023-03-13T02:22:38.156Z,2.97
2023-03-13T02:25:49.529Z,3.20
2023-03-13T02:28:27.685Z,3.37
2023-03-13T02:30:57.088Z,3.23
2023-03-13T02:33:27.751Z,2.83
2023-03-13T02:35:55.056Z,3.10
2023-03-13T02:38:25.629Z,3.30
2023-03-13T02:40:53.556Z,3.70
2023-03-13T02:43:40.515Z,3.03
2023-03-13T02:46:15.362Z,2.83
2023-03-13T02:48:45.644Z,3.00
2023-03-13T02:51:19.205Z,3.00
2023-03-13T02:53:49.464Z,3.00
2023-03-13T02:56:19.584Z,2.90
2023-03-13T02:58:50.568Z,2.83
2023-03-13T03:01:18.495Z,3.33
2023-03-13T03:03:45.122Z,3.00
2023-03-13T03:06:11.785Z,3.40
2023-03-13T03:08:41.762Z,3.33
2023-03-13T03:11:08.400Z,3.50
2023-03-13T03:13:35.167Z,3.53
2023-03-13T03:16:15.345Z,3.27
2023-03-13T03:18:42.010Z,3.30
2023-03-13T03:21:08.688Z,3.60
2023-03-13T03:23:37.028Z,3.60
2023-03-13T03:26:07.503Z,3.40
2023-03-13T03:28:34.249Z,3.53
2023-03-13T03:31:08.606Z,3.33
2023-03-13T03:33:35.592Z,3.63
2023-03-13T03:36:10.893Z,3.60
2023-03-13T03:38:39.799Z,3.50
2023-03-13T03:41:10.613Z,3.97
2023-03-13T03:43:37.718Z,3.83
2023-03-13T03:46:04.566Z,3.60
2023-03-13T03:48:31.326Z,3.73
2023-03-13T03:50:58.140Z,3.73
2023-03-13T03:53:25.047Z,3.20
2023-03-13T03:55:52.164Z,3.40
2023-03-13T03:58:18.944Z,3.60
2023-03-13T04:00:47.526Z,3.40
2023-03-13T04:03:14.581Z,3.50
2023-03-13T04:05:41.628Z,4.00
2023-03-13T04:08:09.159Z,3.40
2023-03-13T04:10:37.308Z,3.10
2023-03-13T04:13:04.214Z,3.30
2023-03-13T04:15:30.772Z,3.43
2023-03-13T04:17:57.417Z,3.20
2023-03-13T04:20:24.265Z,3.47
2023-03-13T04:23:04.044Z,3.30
2023-03-13T04:25:30.857Z,3.30
2023-03-13T04:27:59.425Z,3.70
2023-03-13T04:30:26.797Z,3.90
2023-03-13T04:32:54.602Z,3.40
2023-03-13T04:35:21.423Z,3.97
2023-03-13T04:37:48.286Z,3.67
2023-03-13T04:40:14.928Z,4.03
2023-03-13T04:42:42.331Z,4.23
2023-03-13T04:45:12.099Z,4.67
2023-03-13T04:47:39.057Z,4.90
2023-03-13T04:50:06.295Z,5.63
2023-03-13T04:52:33.147Z,5.47
2023-03-13T04:54:59.869Z,5.10
2023-03-13T04:57:26.666Z,4.97
2023-03-13T04:59:53.252Z,4.70
2023-03-13T05:02:19.910Z,3.50
2023-03-13T05:04:46.647Z,3.70
2023-03-13T05:07:13.260Z,3.50
2023-03-13T05:09:39.875Z,3.20
2023-03-13T05:12:06.963Z,3.30
2023-03-13T05:14:33.562Z,3.03
2023-03-13T05:17:00.138Z,2.90
2023-03-13T05:19:26.845Z,4.77
2023-03-13T05:21:53.366Z,3.40
2023-03-13T05:24:20.192Z,3.00
2023-03-13T05:26:46.901Z,3.30
2023-03-13T05:29:13.475Z,3.30
2023-03-13T05:31:40.019Z,3.13
2023-03-13T05:34:06.748Z,3.50
2023-03-13T05:36:33.538Z,4.07
2023-03-13T05:39:00.126Z,3.80
2023-03-13T05:41:26.871Z,4.00
2023-03-13T05:43:53.528Z,3.70
2023-03-13T05:46:20.227Z,3.53
2023-03-13T05:48:47.169Z,3.43
2023-03-13T05:51:13.837Z,3.77
2023-03-13T05:53:40.429Z,3.37
2023-03-13T05:56:07.503Z,4.20
2023-03-13T05:58:34.128Z,5.10
2023-03-13T06:01:06.885Z,5.43
2023-03-13T06:03:33.523Z,3.97
2023-03-13T06:06:00.693Z,4.00
2023-03-13T06:08:28.141Z,3.90
2023-03-13T06:10:54.657Z,3.83
2023-03-13T06:13:21.221Z,3.60
2023-03-13T06:15:54.915Z,3.33
2023-03-13T06:18:22.081Z,2.93
2023-03-13T06:20:50.825Z,3.30
2023-03-13T06:23:17.532Z,3.10
2023-03-13T06:25:47.800Z,2.70
2023-03-13T06:30:45.553Z,4.53
2023-03-13T06:33:12.213Z,5.80
2023-03-13T06:35:55.918Z,3.80
2023-03-13T06:38:25.365Z,3.70
2023-03-13T06:40:52.201Z,4.30
2023-03-13T06:43:19.391Z,5.10
2023-03-13T06:45:46.955Z,5.97
2023-03-13T06:48:13.747Z,5.37
2023-03-13T06:50:41.262Z,5.90
2023-03-13T06:53:08.417Z,5.50
2023-03-13T06:55:34.967Z,4.43
2023-03-13T06:58:01.668Z,4.10
2023-03-13T07:00:28.501Z,4.50
2023-03-13T07:02:55.501Z,4.67
2023-03-13T07:05:22.303Z,4.33
2023-03-13T07:07:49.124Z,4.00
2023-03-13T07:10:15.845Z,4.33
2023-03-13T07:12:42.610Z,7.70
2023-03-13T07:15:10.001Z,4.63
2023-03-13T07:17:37.460Z,5.53
2023-03-13T07:20:05.523Z,4.70
2023-03-13T07:22:32.548Z,5.20
2023-03-13T07:24:59.208Z,4.50
2023-03-13T07:27:26.389Z,5.27
2023-03-13T07:29:53.101Z,4.87
2023-03-13T07:32:19.829Z,4.73
2023-03-13T07:34:46.732Z,5.23
2023-03-13T07:37:14.296Z,5.97
2023-03-13T07:39:42.345Z,5.43
2023-03-13T07:42:12.607Z,4.30
2023-03-13T07:44:39.203Z,4.13
2023-03-13T07:47:06.976Z,4.43
2023-03-13T07:49:34.122Z,4.23
2023-03-13T07:52:00.693Z,6.20
2023-03-13T07:54:27.304Z,4.30
2023-03-13T07:56:53.983Z,4.00
2023-03-13T07:59:20.670Z,4.03
2023-03-13T08:01:47.291Z,4.10
2023-03-13T08:04:14.507Z,4.10
2023-03-13T08:06:42.149Z,4.20
2023-03-13T08:09:09.106Z,3.43
2023-03-13T08:11:36.055Z,3.57
2023-03-13T08:14:02.935Z,3.53
2023-03-13T08:16:34.829Z,3.57
2023-03-13T08:19:04.897Z,3.67
2023-03-13T08:24:03.020Z,3.50
2023-03-13T08:26:31.549Z,3.00
2023-03-13T08:29:01.161Z,3.27
2023-03-13T08:31:34.140Z,3.15
2023-03-13T08:34:01.383Z,3.40
2023-03-13T08:36:33.839Z,4.03
2023-03-13T08:39:03.354Z,3.10
2023-03-13T08:41:36.771Z,3.47
2023-03-13T08:44:08.252Z,2.90
2023-03-13T08:46:36.546Z,3.03
2023-03-13T08:49:06.642Z,3.00
2023-03-13T08:51:33.723Z,3.13
2023-03-13T08:54:01.402Z,5.87
2023-03-13T08:56:30.574Z,3.77
2023-03-13T08:59:02.324Z,4.20
2023-03-13T09:01:31.448Z,3.50
2023-03-13T09:03:59.945Z,3.00
2023-03-13T09:06:27.983Z,2.88
2023-03-13T09:08:58.144Z,2.80
2023-03-13T09:11:28.440Z,2.20
2023-03-13T09:13:56.453Z,2.60
2023-03-13T09:16:25.412Z,2.53
2023-03-13T09:18:52.826Z,2.93
2023-03-13T09:21:22.577Z,3.63
2023-03-13T09:23:49.382Z,3.42
2023-03-13T09:26:18.024Z,3.20
2023-03-13T09:28:44.955Z,3.47
2023-03-13T09:31:16.810Z,2.77
2023-03-13T09:33:45.097Z,2.57
2023-03-13T09:36:12.525Z,2.97
2023-03-13T09:38:40.148Z,3.00
2023-03-13T09:41:25.813Z,2.63
2023-03-13T09:44:16.876Z,2.73
2023-03-13T09:47:06.153Z,2.53
2023-03-13T09:49:47.018Z,3.00
2023-03-13T09:52:21.794Z,2.60
2023-03-13T09:54:59.594Z,3.10
2023-03-13T09:57:48.632Z,2.90
2023-03-13T10:00:28.125Z,2.78
2023-03-13T10:03:08.077Z,2.85
2023-03-13T10:08:25.547Z,2.60
2023-03-13T10:11:27.665Z,2.77
2023-03-13T10:14:06.375Z,2.00
2023-03-13T10:16:49.461Z,2.90
2023-03-13T10:19:19.203Z,2.50
2023-03-13T10:21:51.876Z,2.75
2023-03-13T10:24:30.512Z,2.53
2023-03-13T10:26:58.645Z,2.73
2023-03-13T10:29:28.425Z,2.77
2023-03-13T10:32:03.456Z,2.50
2023-03-13T10:35:00.935Z,2.67
2023-03-13T10:37:40.219Z,3.10
2023-03-13T10:40:25.673Z,2.70
2023-03-13T10:43:02.076Z,2.77
2023-03-13T10:45:33.860Z,2.77
2023-03-13T10:48:11.925Z,3.30
2023-03-13T10:50:42.775Z,3.30
2023-03-13T10:53:29.818Z,2.07
2023-03-13T10:56:14.781Z,2.90
2023-03-13T10:58:45.000Z,2.93
2023-03-13T11:01:17.703Z,2.50
2023-03-13T11:03:46.903Z,2.47
2023-03-13T11:06:35.184Z,2.42
2023-03-13T11:09:04.822Z,3.03
2023-03-13T11:11:43.144Z,2.40
2023-03-13T11:14:33.208Z,2.93
2023-03-13T11:17:10.583Z,2.70
2023-03-13T11:20:06.603Z,2.20
2023-03-13T11:22:40.278Z,2.73
2023-03-13T11:25:12.943Z,2.50
2023-03-13T11:27:49.898Z,2.60
2023-03-13T11:31:08.765Z,2.40
2023-03-13T11:33:47.681Z,2.53
2023-03-13T11:36:35.433Z,2.63
2023-03-13T11:39:24.433Z,3.10
2023-03-13T11:42:16.228Z,2.70
2023-03-13T11:45:05.450Z,2.10
2023-03-13T11:48:09.519Z,2.10
2023-03-13T11:50:45.450Z,2.60
2023-03-13T11:53:31.894Z,2.67
2023-03-13T11:56:18.463Z,3.60
2023-03-13T11:58:56.478Z,2.70
2023-03-13T12:01:32.835Z,2.70
2023-03-13T12:04:17.780Z,2.70
2023-03-13T12:06:52.407Z,2.43
2023-03-13T12:09:30.644Z,2.70
2023-03-13T12:12:16.383Z,2.60
2023-03-13T12:14:53.613Z,2.60
2023-03-13T12:17:33.967Z,2.63
2023-03-13T12:20:22.398Z,2.67
2023-03-13T12:23:07.749Z,2.37
2023-03-13T12:25:48.486Z,2.30
2023-03-13T12:28:49.394Z,2.23
2023-03-13T12:31:18.773Z,2.43
2023-03-13T12:34:15.058Z,2.05
2023-03-13T12:36:54.196Z,3.00
2023-03-13T12:39:39.569Z,2.50
2023-03-13T12:42:44.909Z,2.20
2023-03-13T12:45:18.840Z,2.20
2023-03-13T12:48:04.000Z,2.60
2023-03-13T12:50:52.597Z,2.33
2023-03-13T12:53:56.538Z,2.63
2023-03-13T12:57:08.428Z,2.50
2023-03-13T12:59:40.688Z,2.20
2023-03-13T13:02:15.517Z,2.70
2023-03-13T13:04:48.318Z,1.93
2023-03-13T13:07:35.708Z,2.30
2023-03-13T13:10:10.645Z,2.50
2023-03-13T13:13:13.800Z,1.87
2023-03-13T13:15:48.716Z,1.77
2023-03-13T13:18:27.904Z,2.13
2023-03-13T13:21:08.096Z,1.90
2023-03-13T13:23:42.236Z,1.80
2023-03-13T13:26:27.101Z,2.20
2023-03-13T13:28:54.847Z,1.80
2023-03-13T13:31:52.768Z,2.33
2023-03-13T13:34:28.548Z,2.17
2023-03-13T13:36:56.612Z,3.40
2023-03-13T13:39:50.604Z,2.77
2023-03-13T13:42:32.626Z,2.60
2023-03-13T13:45:05.536Z,2.70
2023-03-13T13:47:33.822Z,2.47
2023-03-13T13:50:00.997Z,2.60
2023-03-13T13:52:35.370Z,2.20
2023-03-13T13:55:03.262Z,2.37
2023-03-13T13:57:37.287Z,2.47
2023-03-13T14:00:21.740Z,1.90
2023-03-13T14:02:59.281Z,1.97
2023-03-13T14:05:36.982Z,2.13
2023-03-13T14:08:18.205Z,2.00
2023-03-13T14:11:22.351Z,2.00
2023-03-13T14:14:11.185Z,1.93
2023-03-13T14:16:38.765Z,1.80
2023-03-13T14:19:05.523Z,2.10
2023-03-13T14:21:33.271Z,2.00
2023-03-13T14:23:59.984Z,1.80
2023-03-13T14:26:29.410Z,2.10
2023-03-13T14:28:55.935Z,2.30
2023-03-13T14:31:36.876Z,2.10
2023-03-13T14:34:06.545Z,1.93
2023-03-13T14:36:47.614Z,2.30
2023-03-13T14:39:37.088Z,2.27
2023-03-13T14:42:12.494Z,2.67
2023-03-13T14:44:44.161Z,2.40
2023-03-13T14:47:21.375Z,2.50
2023-03-13T14:49:51.402Z,2.17
2023-03-13T14:52:24.307Z,2.33
2023-03-13T14:54:56.775Z,2.20
2023-03-13T14:57:27.625Z,2.90
2023-03-13T14:59:56.019Z,2.20
2023-03-13T15:02:32.417Z,2.20
2023-03-13T15:05:07.736Z,2.20
2023-03-13T15:07:41.570Z,2.40
2023-03-13T15:10:31.693Z,2.30
2023-03-13T15:15:25.504Z,2.30
2023-03-13T15:17:52.065Z,2.20
2023-03-13T15:20:18.847Z,2.67
2023-03-13T15:22:46.733Z,2.53
2023-03-13T15:25:19.806Z,2.83
2023-03-13T15:27:46.959Z,2.50
2023-03-13T15:30:18.612Z,3.00
2023-03-13T15:32:47.309Z,3.40
2023-03-13T15:35:27.740Z,5.37
2023-03-13T15:37:56.512Z,4.97
2023-03-13T15:40:24.675Z,4.93
2023-03-13T15:42:53.016Z,3.80
2023-03-13T15:45:20.392Z,4.03
2023-03-13T15:47:49.028Z,3.33
2023-03-13T15:50:19.687Z,3.00
2023-03-13T15:52:47.197Z,2.70
2023-03-13T15:55:14.551Z,2.60
2023-03-13T15:57:47.356Z,3.03
2023-03-13T16:00:27.515Z,2.93
2023-03-13T16:02:54.441Z,2.57
2023-03-13T16:05:21.463Z,2.80
2023-03-13T16:07:48.182Z,3.13
2023-03-13T16:10:23.858Z,2.93
2023-03-13T16:12:52.538Z,2.73
2023-03-13T16:15:19.307Z,2.83
2023-03-13T16:17:46.164Z,2.63
2023-03-13T16:20:19.441Z,2.63
2023-03-13T16:22:47.063Z,2.60
2023-03-13T16:25:14.757Z,3.03
2023-03-13T16:27:42.465Z,2.73
2023-03-13T16:30:23.425Z,3.27
2023-03-13T16:32:50.802Z,2.83
2023-03-13T16:35:17.847Z,2.90
2023-03-13T16:37:45.519Z,3.87
2023-03-13T16:40:17.710Z,3.87
2023-03-13T16:42:45.028Z,5.60
2023-03-13T16:45:13.685Z,5.33
2023-03-13T16:47:41.935Z,4.70
2023-03-13T16:50:31.670Z,5.03
2023-03-13T16:52:58.621Z,3.83
2023-03-13T16:55:28.929Z,3.70
2023-03-13T16:57:57.404Z,4.50
2023-03-13T17:00:26.265Z,4.70
2023-03-13T17:02:53.177Z,5.60
2023-03-13T17:05:20.583Z,6.67
2023-03-13T17:07:50.361Z,6.37
2023-03-13T17:10:28.879Z,5.63
2023-03-13T17:12:56.311Z,4.60
2023-03-13T17:15:24.679Z,5.13
2023-03-13T17:17:53.093Z,5.17
2023-03-13T17:20:23.154Z,6.17
2023-03-13T17:25:17.185Z,5.33
2023-03-13T17:27:47.043Z,5.90
2023-03-13T17:30:26.474Z,5.80
2023-03-13T17:32:54.089Z,5.97
2023-03-13T17:35:22.151Z,6.57
2023-03-13T17:37:49.433Z,8.80
2023-03-13T17:40:16.082Z,7.37
2023-03-13T17:42:42.925Z,12.87
2023-03-13T17:45:10.403Z,11.53
2023-03-13T17:47:37.034Z,11.00
2023-03-13T17:50:04.665Z,9.67
2023-03-13T17:52:31.357Z,12.10
2023-03-13T17:54:58.010Z,11.63
2023-03-13T17:57:26.334Z,10.47
2023-03-13T17:59:52.981Z,9.73
2023-03-13T18:02:19.815Z,12.67
2023-03-13T18:04:48.131Z,7.93
2023-03-13T18:07:25.015Z,4.80
2023-03-13T18:09:51.824Z,5.33
2023-03-13T18:12:23.377Z,5.95
2023-03-13T18:14:51.000Z,8.13
2023-03-13T18:17:20.485Z,8.80
2023-03-13T18:19:48.454Z,6.65
2023-03-13T18:22:18.006Z,12.73
2023-03-13T18:24:45.783Z,14.13
2023-03-13T18:27:18.681Z,11.50
2023-03-13T18:29:47.043Z,13.57
2023-03-13T18:32:16.110Z,14.57
2023-03-13T18:34:43.288Z,20.07
2023-03-13T18:37:15.688Z,22.63
2023-03-13T18:39:42.308Z,17.80
2023-03-13T18:42:10.796Z,14.03
2023-03-13T18:44:37.661Z,12.40
2023-03-13T18:47:16.608Z,14.17
2023-03-13T18:49:43.619Z,15.87
2023-03-13T18:52:11.863Z,13.97
2023-03-13T18:54:39.098Z,19.27
2023-03-13T18:57:17.870Z,14.87
2023-03-13T18:59:46.082Z,12.67
2023-03-13T19:02:17.306Z,11.30
2023-03-13T19:04:45.016Z,13.73
2023-03-13T19:07:16.137Z,15.00
2023-03-13T19:09:44.558Z,12.87
2023-03-13T19:12:13.169Z,12.60
2023-03-13T19:14:39.884Z,9.60
2023-03-13T19:17:15.508Z,10.50
2023-03-13T19:19:42.022Z,9.83
2023-03-13T19:22:13.226Z,11.73
2023-03-13T19:24:39.960Z,9.97
2023-03-13T19:27:07.030Z,8.47
2023-03-13T19:29:36.576Z,8.73
2023-03-13T19:32:07.690Z,9.32
2023-03-13T19:34:34.381Z,8.07
2023-03-13T19:37:00.980Z,7.30
2023-03-13T19:39:27.839Z,8.83
2023-03-13T19:41:54.631Z,10.23
2023-03-13T19:44:21.980Z,17.33
2023-03-13T19:46:49.113Z,17.97
2023-03-13T19:49:18.191Z,14.40
2023-03-13T19:51:45.709Z,12.33
2023-03-13T19:54:13.824Z,19.77
2023-03-13T19:56:47.137Z,15.23
2023-03-13T19:59:21.740Z,13.00
2023-03-13T20:01:50.894Z,10.70
2023-03-13T20:04:17.497Z,8.93
2023-03-13T20:06:45.717Z,11.10
2023-03-13T20:09:15.480Z,25.87
2023-03-13T20:11:43.033Z,26.25
2023-03-13T20:14:10.452Z,27.40
2023-03-13T20:16:38.010Z,26.80
2023-03-13T20:19:04.840Z,26.87
2023-03-13T20:21:34.585Z,19.20
2023-03-13T20:24:01.675Z,17.33
2023-03-13T20:26:30.160Z,17.07
2023-03-13T20:28:58.253Z,21.23
2023-03-13T20:31:34.249Z,19.60
2023-03-13T20:34:01.775Z,22.87
2023-03-13T20:36:28.688Z,18.13
2023-03-13T20:38:56.125Z,12.60
2023-03-13T20:41:26.341Z,15.20
2023-03-13T20:43:54.519Z,21.42
2023-03-13T20:46:25.066Z,22.17
2023-03-13T20:48:56.831Z,21.30
2023-03-13T20:51:26.779Z,21.30
2023-03-13T20:53:54.123Z,26.20
2023-03-13T20:56:21.259Z,25.63
2023-03-13T20:58:48.072Z,44.70
2023-03-13T21:01:15.094Z,25.30
2023-03-13T21:03:42.653Z,27.90
2023-03-13T21:06:16.317Z,20.57
2023-03-13T21:08:44.748Z,17.40
2023-03-13T21:11:20.301Z,9.53
2023-03-13T21:13:47.669Z,7.70
2023-03-13T21:16:15.991Z,7.43
2023-03-13T21:18:43.073Z,7.60
2023-03-13T21:21:15.065Z,6.67
2023-03-13T21:23:42.014Z,5.77
2023-03-13T21:26:08.915Z,5.40
2023-03-13T21:28:35.665Z,4.60
2023-03-13T21:31:16.056Z,4.47
2023-03-13T21:33:44.784Z,4.20
2023-03-13T21:36:13.627Z,4.77
2023-03-13T21:38:40.805Z,4.87
2023-03-13T21:41:09.965Z,4.43
2023-03-13T21:43:37.548Z,4.43
2023-03-13T21:46:04.560Z,3.73
2023-03-13T21:48:31.258Z,4.87
2023-03-13T21:50:57.871Z,5.73
2023-03-13T21:53:24.762Z,7.17
2023-03-13T21:55:52.369Z,4.63
2023-03-13T21:58:19.051Z,4.00
2023-03-13T22:00:48.976Z,3.90
2023-03-13T22:03:16.099Z,3.55
2023-03-13T22:05:44.156Z,3.67
2023-03-13T22:08:11.182Z,3.20
2023-03-13T22:10:38.454Z,3.30
2023-03-13T22:13:06.355Z,3.33
2023-03-13T22:15:38.984Z,3.20
2023-03-13T22:18:06.655Z,3.40
2023-03-13T22:20:33.297Z,3.60
2023-03-13T22:23:00.918Z,3.10
2023-03-13T22:25:27.434Z,3.20
2023-03-13T22:27:54.004Z,3.27
2023-03-13T22:30:20.737Z,3.53
2023-03-13T22:32:48.785Z,3.70
2023-03-13T22:35:15.665Z,3.23
2023-03-13T22:37:42.460Z,3.10
2023-03-13T22:40:10.976Z,3.40
2023-03-13T22:42:37.595Z,3.20
2023-03-13T22:45:04.847Z,4.30
2023-03-13T22:47:32.605Z,5.73
2023-03-13T22:49:59.233Z,5.37
2023-03-13T22:52:31.124Z,4.77
2023-03-13T22:54:58.604Z,4.70
2023-03-13T22:57:25.693Z,4.80
2023-03-13T22:59:54.054Z,4.13
2023-03-13T23:02:21.057Z,3.13
2023-03-13T23:04:47.724Z,3.20
2023-03-13T23:07:14.486Z,3.60
2023-03-13T23:09:41.058Z,4.40
2023-03-13T23:12:07.696Z,4.73
2023-03-13T23:14:34.500Z,4.20
2023-03-13T23:17:01.252Z,4.07
2023-03-13T23:19:28.012Z,3.67
2023-03-13T23:21:54.615Z,3.43
2023-03-13T23:24:22.200Z,4.40
2023-03-13T23:26:48.931Z,2.87
2023-03-13T23:29:16.633Z,3.13
2023-03-13T23:31:44.218Z,3.33
2023-03-13T23:34:10.756Z,5.07
2023-03-13T23:36:37.457Z,4.73
2023-03-13T23:39:04.721Z,5.00
2023-03-13T23:41:31.553Z,5.30
2023-03-13T23:43:58.680Z,5.80
2023-03-13T23:46:26.369Z,7.13
2023-03-13T23:48:54.955Z,6.40
2023-03-13T23:51:22.449Z,8.87
2023-03-13T23:53:49.091Z,7.87
2023-03-13T23:56:15.792Z,14.47
2023-03-13T23:58:42.722Z,8.40
